x

Texas Tower #4 - 75 Nm East Of Long Beach, Nj (44066) Wave Buoy

4:50am - Wed 30th Jul 2014 All times are EDT. -4 hours from GMT.

  • Sig Wave height 3.3ft
  • Swell Direction
  • Peak Period 8s
  • Average Period 6s
  • Wind
    4mph, 7mph gusts
  • Sea Temp 74°f
  • Air Temp 71°f
  • Sea Pressure 1014.6mb
  • Texas Tower #4 - 75 Nm East Of Long Beach, Nj
  • Texas Tower #4 - 75 Nm East Of Long Beach, Nj

More Historic Weather Station data

Upgrade to MSW Pro to gain access to the past 30 days of data for over 8000 Wavebouys and Weather Stations around the globe.

Join Pro

Comparision Forecast

View Surf forecast
   
Wed 07/30 4:50am 3.5ft 8s 6s 4 7 mph 1014.6mb 74f 71f
3:50am 3ft 7s 6s 4 7 mph 1014.3mb 74f 71f
2:50am 3.5ft 7s 6s 4 7 mph 1014.1mb 74f 71f
1:50am 3.5ft 8s 7s 9 11 mph 1014.7mb 74f 71f
12:50am 3ft 8s 7s 9 11 mph 1015.3mb 74f 71f
Tue 07/29 11:50pm 3ft 7s 6s 7 9 mph 1015mb 75f 71f
10:50pm 3ft 8s 6s 7 9 mph 1015mb 75f 71f
9:50pm 3ft 8s 6s 7 9 mph 1014.7mb 75f 71f
8:50pm 3ft 8s 6s 4 7 mph 1014.2mb 75f 71f
7:50pm 3ft 8s 5s 2 4 mph 1014mb 75f 71f
6:50pm 3ft 8s 5s 4
mph
1013.8mb 75f 72f
5:50pm 3ft 8s 6s 2 4 mph 1013.6mb 75f 72f
4:50pm 3.5ft 8s 5s 4 7 mph 1013.3mb 75f 70f
3:50pm 3.5ft 7s 5s 4 7 mph 1012.9mb 75f 70f
2:50pm 3.5ft 7s 5s 4 7 mph 1012.5mb 75f 69f
1:50pm 3.5ft 8s 5s 7 9 mph 1012mb 75f 69f
12:50pm 3.5ft 7s 5s 9 13 mph 1011.3mb 75f 69f
11:50am 3.5ft 8s 5s 9 11 mph 1011.2mb 74f 69f
10:50am 3.5ft 8s 5s 9 11 mph 1010.9mb 74f 69f
9:50am 4.5ft 7s 5s 9 11 mph 1010.5mb 74f 69f
8:50am 4.5ft 8s 5s 11 13 mph 1009.8mb 74f 70f
7:50am 4.5ft 6s 5s 11 13 mph 1009.5mb 74f 70f
6:50am 4.5ft 6s 5s 13 16 mph 1008.9mb 74f 70f
5:50am 5.5ft 6s 5s 11 16 mph 1008.5mb 74f 70f
4:50am 6ft 6s 5s 16 18 mph 1007.9mb 74f 70f
3:50am 6ft 7s 5s 16 18 mph 1007.6mb 74f 71f
2:50am 6ft 8s 5s 18 20 mph 1006.8mb 74f 71f
1:50am 5.5ft 7s 5s 20 22 mph 1006.2mb 74f 72f
12:50am 5ft 8s 5s 20 25 mph 1005.6mb 74f 73f
Mon 07/28 11:50pm 5.5ft 8s 5s 20 27 mph 1004.2mb 74f 76f
10:50pm 5ft 8s 5s 16 20 mph 1004.4mb 75f 76f
9:50pm 5.5ft 7s 5s 18 20 mph 1004.6mb 75f 76f
8:50pm 5ft 7s 5s 22 29 mph 1003.6mb 75f 77f
7:50pm 5ft 7s 5s 20 25 mph 1003.1mb 75f 77f
6:50pm 5ft 6s 5s 18 22 mph 1002.6mb 75f 77f
5:50pm 4.5ft 6s 5s 20 22 mph 1002.3mb 75f 77f
4:50pm 4.5ft 6s 5s 16 18 mph 1002mb 75f 76f
3:50pm 4.5ft 7s 5s 16 20 mph 1001.9mb 75f 76f
2:50pm 4.5ft 7s 5s 16 20 mph 1001.8mb 75f 76f
1:50pm 5ft 6s 5s 16 18 mph 1001.6mb 75f 76f
12:50pm 5ft 6s 5s 16 20 mph 1001.6mb 74f 75f
11:50am 5ft 6s 5s 16 20 mph 1001.3mb 74f 75f
10:50am  -   -   -  18
mph
- - 76f
9:50am 3.5ft 5s 5s 18 20 mph 1001.3mb 74f 76f
8:50am 3.5ft 5s 5s 11 13 mph 1001.5mb 74f 76f
7:50am 3.5ft 6s 5s 7 9 mph 1002.2mb 74f 73f
6:50am 3.5ft 5s 5s 4 7 mph 1002.8mb 74f 73f
5:50am 3.5ft 5s 4s 9 13 mph 1002.9mb 74f 74f
2:50am 3.5ft 5s 5s 16 20 mph 1003.6mb 74f 75f
1:50am 3.5ft 6s 5s 13 18 mph 1004.6mb 74f 75f
12:50am 3.5ft 6s 5s 16 20 mph 1005.1mb 74f 75f
Sun 07/27 11:50pm 3.5ft 6s 5s 16 18 mph 1006.2mb 74f 75f
10:50pm 3.5ft 6s 5s 16 18 mph 1006.7mb 74f 75f
9:50pm 3.5ft 6s 4s 18 20 mph 1007mb 74f 74f
8:50pm 3.5ft 6s 5s 13 16 mph 1006.7mb 74f 74f
7:50pm 3.5ft 6s 4s 13 16 mph 1006.1mb 74f 74f
6:50pm 4.5ft 5s 5s 18 20 mph 1006.4mb 74f 75f
5:50pm 4.5ft 6s 5s 18 22 mph 1006.8mb 74f 76f
4:50pm 4ft 6s 5s 16 20 mph 1007.4mb 74f 76f
3:50pm 3.5ft 5s 4s 13 16 mph 1008mb 74f 75f
2:50pm 3.5ft 5s 4s 16 20 mph 1008mb 74f 75f
1:50pm 3.5ft 5s 4s 18 22 mph 1008.2mb 74f 74f
12:50pm 3.5ft 5s 4s 18 27 mph 1008.5mb 74f 72f
11:50am  -   -   -  22 25 mph 1009.1mb 74f 71f
10:50am  -   -   -  16 18 mph 1009.6mb 74f 71f
9:50am 2.5ft 8s 4s 13 16 mph 1011mb 74f 74f
8:50am 2.5ft 8s 4s 16 18 mph 1010mb 74f 75f
7:50am 2.5ft 5s 4s 13 16 mph 1011.1mb 74f 75f
6:50am 2.5ft 7s 5s 13
mph
1011.5mb 74f 74f
5:50am 2.5ft 7s 5s 11 13 mph 1011.7mb 74f 74f
4:50am 2.5ft 7s 4s 11
mph
1012mb 74f 74f
3:50am 2.5ft 7s 4s 9 11 mph 1011.9mb 74f 74f
2:50am 2.5ft 6s 4s 11
mph
1012.4mb 74f 74f
1:50am 2ft 7s 4s 13 16 mph 1012.9mb 74f 74f
12:50am 2.5ft 7s 5s 11 13 mph 1013.1mb 74f 74f
Sat 07/26 11:50pm 2.5ft 7s 5s 11 13 mph 1013.7mb 74f 74f
10:50pm 2.5ft 7s 5s 9 11 mph 1013.9mb 74f 74f
9:50pm 2.5ft 8s 5s 9 11 mph 1014.7mb 74f 74f
8:50pm 2ft 8s 5s 11 13 mph 1013.9mb 74f 74f
7:50pm 2ft 7s 5s 11 13 mph 1014mb 74f 74f
6:50pm 2ft 7s 5s 11 13 mph 1014.1mb 74f 74f
5:50pm 2ft 7s 5s 11 13 mph 1014.4mb 75f 74f
4:50pm 2ft 7s 5s 9 11 mph 1015mb 75f 74f
3:50pm 2.5ft 7s 6s 11 13 mph 1015.1mb 75f 74f
2:50pm 2ft 7s 5s 9 11 mph 1015.4mb 75f 74f
1:50pm 2.5ft 8s 5s 9
mph
1015.6mb 74f 74f
12:50pm 2.5ft 7s 5s 7 9 mph 1016mb 74f 74f
11:50am 2.5ft 8s 5s 9
mph
1016.3mb 74f 74f
10:50am 2.5ft 8s 5s 7 9 mph 1016.6mb 74f 73f